Weather at P-L Ranch Airport

Public forecast

Using degrees Fahrenheit for public forecast. Weather courtesy of forecast.io.

Closest aviation weather report (METAR) to P-L Ranch Airport

Closest report is Olympia Regional Airport, 7.2 nm (13.4 km) W.

2024/06/14 10:54 (retrieved 25 minutes ago)

KOLM 141054Z AUTO 20008KT 10SM CLR 08/06 A3014 RMK AO2 SLP208 T00830061

Closest aviation forecast (TAF) to P-L Ranch Airport

Closest forecast is Olympia Regional Airport, 7.2 nm (13.4 km) W.

2024/06/14 06:22 (retrieved 5 hours ago)

TAF KOLM 140520Z 1406/1506 22008KT P6SM SKC FM141400 20005KT P6SM SCT080 BKN120 FM141800 20009KT P6SM VCSH BKN050 OVC100 FM150200 24005KT P6SM VCSH OVC050